Time;durP1;ratioP1;P1;durP2;ratioP2;P2;SDS_P1;SDS_P2;PMS_P1;PMS_P2;Temp;Humidity;BMP_temperature;BMP_pressure;BME280_temperature;BME280_humidity;BME280_pressure;Samples;Min_cycle;Max_cycle;Signal;HPM_P1;HPM_P2
2023/08/14 00:00:50;;;;;;;9.60;4.97;;;;;;;;;;5010453;28;20026;-74
2023/08/14 00:03:15;;;;;;;7.68;5.65;;;;;;;;;;5010032;28;20042;-75
2023/08/14 00:05:41;;;;;;;6.78;4.72;;;;;;;;;;4993238;28;20030;-74
2023/08/14 00:08:06;;;;;;;7.30;4.93;;;;;;;;;;5009934;28;20026;-74
2023/08/14 00:10:31;;;;;;;8.88;6.40;;;;;;;;;;4990290;28;20069;-73
2023/08/14 00:12:56;;;;;;;7.20;4.32;;;;;;;;;;4993858;28;20029;-73
2023/08/14 00:15:22;;;;;;;7.25;5.05;;;;;;;;;;4994214;28;20357;-73
2023/08/14 00:17:47;;;;;;;8.35;5.47;;;;;;;;;;4976141;28;20164;-73
2023/08/14 00:20:15;;;;;;;7.97;5.07;;;;;;;;;;4995075;28;20065;-73
2023/08/14 00:22:41;;;;;;;5.07;3.80;;;;;;;;;;4994203;28;20022;-73
2023/08/14 00:25:09;;;;;;;5.50;4.20;;;;;;;;;;4995136;28;20081;-74
2023/08/14 00:27:34;;;;;;;10.32;5.40;;;;;;;;;;4992824;28;20026;-74
2023/08/14 00:30:00;;;;;;;9.85;5.28;;;;;;;;;;5007381;28;20031;-73
2023/08/14 00:32:26;;;;;;;8.02;4.65;;;;;;;;;;4993173;28;20038;-74
2023/08/14 00:34:54;;;;;;;6.75;4.50;;;;;;;;;;5000695;28;20022;-73
2023/08/14 00:37:21;;;;;;;5.57;3.67;;;;;;;;;;4976984;28;20045;-73
2023/08/14 00:39:46;;;;;;;7.78;5.03;;;;;;;;;;4992056;28;20021;-73
2023/08/14 00:42:12;;;;;;;5.32;4.32;;;;;;;;;;4994295;28;20034;-73
2023/08/14 00:44:37;;;;;;;5.20;3.78;;;;;;;;;;4992948;28;20018;-74
2023/08/14 00:47:02;;;;;;;8.77;5.97;;;;;;;;;;4994046;28;20062;-74
2023/08/14 00:49:28;;;;;;;6.13;5.00;;;;;;;;;;4992524;28;20029;-74
2023/08/14 00:51:53;;;;;;;4.82;3.10;;;;;;;;;;4992807;28;20445;-73
2023/08/14 00:54:18;;;;;;;9.45;5.65;;;;;;;;;;5003980;28;20065;-73
2023/08/14 00:56:44;;;;;;;9.10;5.72;;;;;;;;;;4994156;28;20033;-73
2023/08/14 00:59:10;;;;;;;8.50;5.32;;;;;;;;;;4992680;28;20105;-73
2023/08/14 01:01:35;;;;;;;6.05;3.90;;;;;;;;;;5009417;28;20053;-73
2023/08/14 01:04:00;;;;;;;5.32;4.15;;;;;;;;;;5008429;28;20050;-74
2023/08/14 01:06:25;;;;;;;6.25;4.07;;;;;;;;;;4992907;28;20022;-73
2023/08/14 01:08:51;;;;;;;7.68;4.03;;;;;;;;;;5009075;28;20026;-73
2023/08/14 01:11:30;;;;;;;5.03;3.60;;;;;;;;;;5004575;28;20033;-73
2023/08/14 01:14:09;;;;;;;9.52;4.38;;;;;;;;;;5013605;28;20048;-73
2023/08/14 01:16:38;;;;;;;7.03;4.22;;;;;;;;;;5012232;28;20024;-73
2023/08/14 01:19:05;;;;;;;5.22;3.88;;;;;;;;;;5013424;28;20020;-73
2023/08/14 01:21:41;;;;;;;6.28;4.68;;;;;;;;;;5011690;28;20026;-73
2023/08/14 01:24:10;;;;;;;6.05;4.38;;;;;;;;;;5004934;28;20022;-73
2023/08/14 01:26:36;;;;;;;5.28;3.53;;;;;;;;;;4993839;28;20436;-73
2023/08/14 01:29:01;;;;;;;5.70;4.60;;;;;;;;;;4993008;28;20030;-74
2023/08/14 01:31:26;;;;;;;9.52;6.13;;;;;;;;;;4991867;28;20022;-73
2023/08/14 01:33:52;;;;;;;6.68;4.72;;;;;;;;;;5008747;28;20488;-73
2023/08/14 01:36:22;;;;;;;6.60;4.50;;;;;;;;;;4993069;28;20172;-73
2023/08/14 01:38:56;;;;;;;5.47;3.65;;;;;;;;;;4992671;28;20073;-73
2023/08/14 01:41:58;;;;;;;6.57;3.90;;;;;;;;;;4992281;28;20397;-73
2023/08/14 01:44:24;;;;;;;7.03;4.05;;;;;;;;;;4979144;28;20076;-73
2023/08/14 01:46:53;;;;;;;5.32;4.07;;;;;;;;;;4987275;28;20066;-73
2023/08/14 01:49:19;;;;;;;5.38;3.97;;;;;;;;;;4972843;28;20111;-74
2023/08/14 01:51:49;;;;;;;7.00;4.30;;;;;;;;;;4973938;28;20457;-74
2023/08/14 01:54:14;;;;;;;5.55;4.25;;;;;;;;;;4973099;28;20032;-73
2023/08/14 01:56:39;;;;;;;5.93;4.68;;;;;;;;;;4973223;28;20031;-74
2023/08/14 01:59:05;;;;;;;3.92;3.47;;;;;;;;;;4974468;28;20465;-73
2023/08/14 02:01:30;;;;;;;5.50;4.18;;;;;;;;;;4989106;28;20113;-73
2023/08/14 02:03:55;;;;;;;4.45;4.05;;;;;;;;;;4972933;28;20019;-73
2023/08/14 02:06:21;;;;;;;6.72;3.72;;;;;;;;;;4990361;28;20374;-73
2023/08/14 02:08:46;;;;;;;5.00;3.90;;;;;;;;;;4974271;28;20023;-73
2023/08/14 02:11:11;;;;;;;4.25;3.67;;;;;;;;;;4973713;28;20027;-73
2023/08/14 02:13:36;;;;;;;5.65;3.67;;;;;;;;;;5008810;28;20045;-73
2023/08/14 02:16:03;;;;;;;5.82;3.70;;;;;;;;;;5011374;28;20025;-74
2023/08/14 02:18:28;;;;;;;7.85;3.22;;;;;;;;;;5011301;28;20407;-74
2023/08/14 02:20:53;;;;;;;3.70;3.03;;;;;;;;;;5011747;28;20018;-73
2023/08/14 02:23:19;;;;;;;5.35;3.65;;;;;;;;;;5013297;28;20034;-73
2023/08/14 02:25:44;;;;;;;5.75;3.80;;;;;;;;;;5011780;28;20021;-73
2023/08/14 02:28:10;;;;;;;4.32;3.30;;;;;;;;;;5012046;28;20021;-73
2023/08/14 02:30:37;;;;;;;5.43;3.22;;;;;;;;;;5011200;28;20042;-73
2023/08/14 02:33:03;;;;;;;4.07;3.20;;;;;;;;;;5012944;28;20026;-73
2023/08/14 02:35:28;;;;;;;5.05;3.30;;;;;;;;;;5012972;28;20416;-73
2023/08/14 02:37:53;;;;;;;4.35;3.30;;;;;;;;;;5012782;28;20029;-73
2023/08/14 02:40:18;;;;;;;5.20;2.90;;;;;;;;;;5012900;28;20153;-73
2023/08/14 02:42:44;;;;;;;6.28;3.55;;;;;;;;;;5015674;28;20026;-74
2023/08/14 02:45:09;;;;;;;3.50;2.90;;;;;;;;;;5016974;28;20461;-73
2023/08/14 02:47:35;;;;;;;3.70;3.25;;;;;;;;;;5016125;28;20085;-73
2023/08/14 02:50:00;;;;;;;3.60;3.22;;;;;;;;;;5016501;28;20072;-73
2023/08/14 02:52:25;;;;;;;8.85;3.25;;;;;;;;;;4998223;28;20079;-74
2023/08/14 02:54:50;;;;;;;3.67;3.03;;;;;;;;;;5014963;28;20137;-73
2023/08/14 02:57:16;;;;;;;4.97;3.70;;;;;;;;;;5015179;28;20037;-73
2023/08/14 02:59:41;;;;;;;3.38;2.60;;;;;;;;;;5016922;28;20018;-73
2023/08/14 03:02:06;;;;;;;3.55;3.00;;;;;;;;;;5014373;28;20524;-73
2023/08/14 03:04:31;;;;;;;5.78;3.33;;;;;;;;;;5016118;28;20026;-73
2023/08/14 03:06:57;;;;;;;3.88;3.50;;;;;;;;;;5015815;28;20026;-73
2023/08/14 03:09:22;;;;;;;5.15;3.30;;;;;;;;;;5015384;28;20117;-74
2023/08/14 03:11:48;;;;;;;3.65;3.03;;;;;;;;;;4998430;28;20022;-73
2023/08/14 03:14:13;;;;;;;5.53;3.22;;;;;;;;;;5015897;28;20427;-74
2023/08/14 03:16:38;;;;;;;4.90;3.67;;;;;;;;;;5016096;28;20530;-73
2023/08/14 03:19:04;;;;;;;7.45;5.28;;;;;;;;;;5015765;28;20046;-73
2023/08/14 03:21:29;;;;;;;5.15;4.25;;;;;;;;;;5015555;28;20026;-74
2023/08/14 03:23:54;;;;;;;4.78;3.72;;;;;;;;;;5015664;28;20021;-73
2023/08/14 03:26:19;;;;;;;5.70;3.58;;;;;;;;;;5014702;28;20365;-73
2023/08/14 03:28:45;;;;;;;6.32;3.97;;;;;;;;;;5014585;28;20034;-73
2023/08/14 03:31:10;;;;;;;8.80;4.47;;;;;;;;;;5014383;28;20018;-73
2023/08/14 03:33:35;;;;;;;7.50;4.85;;;;;;;;;;5014651;28;20033;-73
2023/08/14 03:36:01;;;;;;;5.38;3.60;;;;;;;;;;5014903;28;20018;-74
2023/08/14 03:38:26;;;;;;;5.95;4.22;;;;;;;;;;5014224;28;20021;-73
2023/08/14 03:40:52;;;;;;;7.07;5.15;;;;;;;;;;5014206;28;20065;-73
2023/08/14 03:43:17;;;;;;;8.52;5.00;;;;;;;;;;5014149;28;20032;-73
2023/08/14 03:45:42;;;;;;;9.18;6.10;;;;;;;;;;5013633;28;20025;-73
2023/08/14 03:48:08;;;;;;;7.22;5.30;;;;;;;;;;5001508;28;20097;-74
2023/08/14 03:50:33;;;;;;;6.53;4.50;;;;;;;;;;4995559;28;20439;-73
2023/08/14 03:52:58;;;;;;;7.50;4.97;;;;;;;;;;4993284;28;20037;-73
2023/08/14 03:55:23;;;;;;;7.95;5.00;;;;;;;;;;4994104;28;20081;-73
2023/08/14 03:57:49;;;;;;;5.78;4.25;;;;;;;;;;5009994;28;20064;-73
2023/08/14 04:00:14;;;;;;;7.13;5.35;;;;;;;;;;4994062;28;20018;-73
2023/08/14 04:02:40;;;;;;;10.05;6.63;;;;;;;;;;5010318;28;20026;-73
2023/08/14 04:05:05;;;;;;;9.07;6.75;;;;;;;;;;5013921;28;20030;-73
2023/08/14 04:07:31;;;;;;;5.43;4.20;;;;;;;;;;5005658;28;20022;-73
2023/08/14 04:09:56;;;;;;;6.30;5.03;;;;;;;;;;4994664;28;20027;-73
2023/08/14 04:12:21;;;;;;;6.47;4.53;;;;;;;;;;4995102;28;20081;-73
2023/08/14 04:14:48;;;;;;;5.75;3.95;;;;;;;;;;4994068;28;20105;-73
2023/08/14 04:17:14;;;;;;;9.27;5.75;;;;;;;;;;4993887;28;20037;-73
2023/08/14 04:19:39;;;;;;;8.25;5.40;;;;;;;;;;4993712;28;20022;-73
2023/08/14 04:22:04;;;;;;;10.50;7.57;;;;;;;;;;4993232;28;20052;-73
2023/08/14 04:24:30;;;;;;;13.55;9.50;;;;;;;;;;4992881;28;20030;-74
2023/08/14 04:26:55;;;;;;;11.93;7.13;;;;;;;;;;4994856;28;20026;-73
2023/08/14 04:29:20;;;;;;;12.90;7.82;;;;;;;;;;4994195;28;20473;-74
2023/08/14 04:31:45;;;;;;;10.95;7.28;;;;;;;;;;4993514;28;20548;-73
2023/08/14 04:34:11;;;;;;;8.68;6.20;;;;;;;;;;4994616;28;20496;-73
2023/08/14 04:36:36;;;;;;;14.88;9.07;;;;;;;;;;4993429;28;20026;-73
2023/08/14 04:39:04;;;;;;;14.60;8.43;;;;;;;;;;4993470;28;20027;-73
2023/08/14 04:41:29;;;;;;;12.88;9.40;;;;;;;;;;4993044;28;20049;-73
2023/08/14 04:43:54;;;;;;;15.90;8.57;;;;;;;;;;4992892;28;20444;-73
2023/08/14 04:46:36;;;;;;;20.73;10.25;;;;;;;;;;4992785;28;20030;-73
2023/08/14 04:49:02;;;;;;;14.98;8.80;;;;;;;;;;4973887;28;20031;-73
2023/08/14 04:51:28;;;;;;;15.82;9.60;;;;;;;;;;4973020;28;20034;-73
2023/08/14 04:53:54;;;;;;;14.63;8.35;;;;;;;;;;4974381;28;20494;-73
2023/08/14 04:56:19;;;;;;;15.68;9.23;;;;;;;;;;4973325;28;20030;-73
2023/08/14 04:58:44;;;;;;;15.20;9.65;;;;;;;;;;4978853;28;20535;-73
2023/08/14 05:01:10;;;;;;;16.17;9.55;;;;;;;;;;4984647;28;20112;-73
2023/08/14 05:03:38;;;;;;;14.13;9.73;;;;;;;;;;4993444;28;20065;-73
2023/08/14 05:06:03;;;;;;;17.60;9.10;;;;;;;;;;4993944;28;20173;-73
2023/08/14 05:08:30;;;;;;;17.10;8.60;;;;;;;;;;4994144;28;20485;-73
2023/08/14 05:10:55;;;;;;;20.83;9.90;;;;;;;;;;5008188;28;20486;-73
2023/08/14 05:13:21;;;;;;;17.38;9.82;;;;;;;;;;5009287;28;20037;-73
2023/08/14 05:15:47;;;;;;;19.05;9.80;;;;;;;;;;5008957;28;20076;-74
2023/08/14 05:18:13;;;;;;;11.25;8.50;;;;;;;;;;4992199;28;20033;-73
2023/08/14 05:20:39;;;;;;;14.10;9.38;;;;;;;;;;4992531;28;20018;-73
2023/08/14 05:23:04;;;;;;;16.23;9.60;;;;;;;;;;4992301;28;20026;-72
2023/08/14 05:25:29;;;;;;;11.85;8.48;;;;;;;;;;4992619;28;20073;-72
2023/08/14 05:27:55;;;;;;;16.15;9.80;;;;;;;;;;4993427;28;20528;-73
2023/08/14 05:30:20;;;;;;;15.45;9.25;;;;;;;;;;5008467;28;20034;-73
2023/08/14 05:32:47;;;;;;;16.80;9.30;;;;;;;;;;4992227;28;20038;-73
2023/08/14 05:35:12;;;;;;;15.85;9.50;;;;;;;;;;4993695;28;20101;-73
2023/08/14 05:37:39;;;;;;;14.38;9.35;;;;;;;;;;4993018;28;20053;-73
2023/08/14 05:40:05;;;;;;;11.15;7.53;;;;;;;;;;4993687;28;20046;-73
2023/08/14 05:42:31;;;;;;;13.40;8.27;;;;;;;;;;4976018;28;20033;-73
2023/08/14 05:44:56;;;;;;;16.13;8.32;;;;;;;;;;4988312;28;20101;-73
2023/08/14 05:47:21;;;;;;;11.07;7.95;;;;;;;;;;4972869;28;20063;-73
2023/08/14 05:49:49;;;;;;;20.40;9.65;;;;;;;;;;4973752;28;20031;-73
2023/08/14 05:52:14;;;;;;;14.63;8.13;;;;;;;;;;4991625;28;20081;-73
2023/08/14 05:54:40;;;;;;;12.85;8.07;;;;;;;;;;4993505;28;20030;-73
2023/08/14 05:57:05;;;;;;;11.18;8.20;;;;;;;;;;4992678;28;20492;-73
2023/08/14 05:59:30;;;;;;;16.50;7.65;;;;;;;;;;4991704;28;20389;-73
2023/08/14 06:01:56;;;;;;;17.38;8.15;;;;;;;;;;4993549;28;20026;-73
2023/08/14 06:04:21;;;;;;;14.95;8.20;;;;;;;;;;4993242;28;20022;-72
2023/08/14 06:06:49;;;;;;;12.07;7.43;;;;;;;;;;4992396;28;20022;-74
2023/08/14 06:09:17;;;;;;;16.58;8.70;;;;;;;;;;4992018;28;20045;-74
2023/08/14 06:11:42;;;;;;;19.42;8.27;;;;;;;;;;4992134;28;20026;-75
2023/08/14 06:14:08;;;;;;;12.57;7.20;;;;;;;;;;5008946;28;20026;-75
2023/08/14 06:16:33;;;;;;;8.68;6.63;;;;;;;;;;4994990;28;20065;-75
2023/08/14 06:18:58;;;;;;;12.80;8.55;;;;;;;;;;4979751;28;20030;-75
2023/08/14 06:21:23;;;;;;;14.85;7.82;;;;;;;;;;4995997;28;20030;-75
2023/08/14 06:23:49;;;;;;;11.70;7.90;;;;;;;;;;4996209;28;20034;-74
2023/08/14 06:26:14;;;;;;;13.57;8.88;;;;;;;;;;4995196;28;20062;-74
2023/08/14 06:28:39;;;;;;;13.32;7.97;;;;;;;;;;4997187;28;20026;-74
2023/08/14 06:31:05;;;;;;;14.10;9.43;;;;;;;;;;4996828;28;20030;-74
2023/08/14 06:33:31;;;;;;;14.73;8.27;;;;;;;;;;4996197;28;20022;-75
2023/08/14 06:35:56;;;;;;;14.40;8.55;;;;;;;;;;4997414;28;20030;-74
2023/08/14 06:38:21;;;;;;;14.73;9.05;;;;;;;;;;4996707;28;20018;-74
2023/08/14 06:40:46;;;;;;;13.88;7.53;;;;;;;;;;4995978;28;20393;-75
2023/08/14 06:43:12;;;;;;;14.10;8.35;;;;;;;;;;4996809;28;20400;-74
2023/08/14 06:45:37;;;;;;;13.85;8.55;;;;;;;;;;4997428;28;20081;-74
2023/08/14 06:48:02;;;;;;;15.50;8.38;;;;;;;;;;4978366;28;20109;-74
2023/08/14 06:50:28;;;;;;;15.25;9.25;;;;;;;;;;4995749;28;20026;-74
2023/08/14 06:52:53;;;;;;;14.38;8.43;;;;;;;;;;4996097;28;20030;-74
2023/08/14 06:55:20;;;;;;;10.57;7.20;;;;;;;;;;4978577;28;20105;-74
2023/08/14 06:57:45;;;;;;;15.07;7.28;;;;;;;;;;4994662;28;20026;-74
2023/08/14 07:00:14;;;;;;;18.02;7.57;;;;;;;;;;4994292;28;20033;-74
2023/08/14 07:02:40;;;;;;;20.63;7.50;;;;;;;;;;4994234;28;20029;-74
2023/08/14 07:05:08;;;;;;;17.48;8.63;;;;;;;;;;4995299;28;20022;-74
2023/08/14 07:07:33;;;;;;;11.00;7.53;;;;;;;;;;4993945;28;20069;-74
2023/08/14 07:09:59;;;;;;;11.80;6.80;;;;;;;;;;4995665;28;20046;-74
2023/08/14 07:12:24;;;;;;;12.80;6.35;;;;;;;;;;4994358;28;20484;-74
2023/08/14 07:14:49;;;;;;;10.45;5.80;;;;;;;;;;4994810;28;20019;-74
2023/08/14 07:17:14;;;;;;;11.57;6.75;;;;;;;;;;4995369;28;20029;-74
2023/08/14 07:19:40;;;;;;;11.50;4.78;;;;;;;;;;4993455;28;20081;-74
2023/08/14 07:22:05;;;;;;;8.75;4.45;;;;;;;;;;4995424;28;20041;-74
2023/08/14 07:24:31;;;;;;;9.75;3.88;;;;;;;;;;4995254;28;20024;-74
2023/08/14 07:26:57;;;;;;;9.02;3.80;;;;;;;;;;4994236;28;20515;-74
2023/08/14 07:29:23;;;;;;;9.68;4.07;;;;;;;;;;4993862;28;20031;-74
2023/08/14 07:31:48;;;;;;;5.63;3.30;;;;;;;;;;4994894;28;20027;-74
2023/08/14 07:34:13;;;;;;;6.93;3.35;;;;;;;;;;4995391;28;20473;-75
2023/08/14 07:36:38;;;;;;;5.50;3.53;;;;;;;;;;4977643;28;20026;-75
2023/08/14 07:39:04;;;;;;;7.35;3.30;;;;;;;;;;4993835;28;20025;-74
2023/08/14 07:41:29;;;;;;;8.63;2.55;;;;;;;;;;4994578;28;20479;-75
2023/08/14 07:43:54;;;;;;;6.18;2.70;;;;;;;;;;4993769;28;20573;-75
2023/08/14 07:46:20;;;;;;;6.93;2.90;;;;;;;;;;4941421;28;1044358;-75
2023/08/14 07:48:45;;;;;;;5.80;2.63;;;;;;;;;;4994953;28;20495;-75
2023/08/14 07:51:10;;;;;;;7.13;3.00;;;;;;;;;;4994119;28;20472;-75
2023/08/14 07:53:36;;;;;;;4.03;2.20;;;;;;;;;;4995614;28;20037;-75
2023/08/14 07:56:01;;;;;;;6.28;2.42;;;;;;;;;;4994464;28;20104;-75
2023/08/14 07:58:26;;;;;;;5.45;2.78;;;;;;;;;;4995647;28;20121;-75
2023/08/14 08:00:52;;;;;;;6.78;2.80;;;;;;;;;;4978004;28;20129;-75
2023/08/14 08:03:17;;;;;;;4.13;2.70;;;;;;;;;;4994395;28;20480;-75
2023/08/14 08:05:43;;;;;;;5.53;2.60;;;;;;;;;;4993670;28;20109;-74
2023/08/14 08:08:08;;;;;;;5.25;3.08;;;;;;;;;;4993924;28;20033;-74
2023/08/14 08:10:33;;;;;;;5.15;2.45;;;;;;;;;;4994123;28;20022;-74
2023/08/14 08:12:59;;;;;;;3.17;2.35;;;;;;;;;;4995188;28;20018;-74
2023/08/14 08:15:24;;;;;;;6.32;2.30;;;;;;;;;;4994049;28;20080;-74
2023/08/14 08:17:49;;;;;;;3.65;2.80;;;;;;;;;;4993887;28;20030;-75
2023/08/14 08:20:15;;;;;;;7.78;2.70;;;;;;;;;;4993419;28;20018;-74
2023/08/14 08:22:40;;;;;;;4.53;2.60;;;;;;;;;;4993868;28;20026;-75
2023/08/14 08:25:06;;;;;;;5.13;2.97;;;;;;;;;;4995054;28;20073;-75
2023/08/14 08:27:31;;;;;;;4.72;2.90;;;;;;;;;;4977331;28;20032;-75
2023/08/14 08:29:56;;;;;;;4.50;2.92;;;;;;;;;;4993557;28;20026;-75
2023/08/14 08:32:23;;;;;;;4.45;3.00;;;;;;;;;;4993202;28;20053;-75
2023/08/14 08:34:48;;;;;;;4.80;2.28;;;;;;;;;;4993755;28;20027;-75
2023/08/14 08:37:16;;;;;;;3.60;2.50;;;;;;;;;;4995273;28;20037;-75
2023/08/14 08:39:41;;;;;;;6.22;3.17;;;;;;;;;;4993256;28;20022;-75
2023/08/14 08:42:08;;;;;;;6.55;2.80;;;;;;;;;;4994241;28;20543;-75
2023/08/14 08:44:33;;;;;;;5.28;2.70;;;;;;;;;;4993562;28;20033;-75
2023/08/14 08:47:10;;;;;;;11.00;7.15;;;;;;;;;;4977070;28;20034;-76
2023/08/14 08:49:36;;;;;;;12.68;6.93;;;;;;;;;;4993730;28;20142;-75
2023/08/14 08:52:02;;;;;;;25.20;10.13;;;;;;;;;;4992966;28;20130;-75
2023/08/14 08:54:28;;;;;;;45.13;22.88;;;;;;;;;;4993505;28;20026;-75
2023/08/14 08:56:55;;;;;;;17.63;8.80;;;;;;;;;;4993291;28;20481;-75
2023/08/14 08:59:22;;;;;;;10.25;5.30;;;;;;;;;;4977167;28;20018;-75
2023/08/14 09:01:47;;;;;;;10.23;5.25;;;;;;;;;;4990443;28;20022;-75
2023/08/14 09:04:12;;;;;;;3.30;2.03;;;;;;;;;;4992589;28;20030;-75
2023/08/14 09:06:38;;;;;;;5.30;2.83;;;;;;;;;;4993123;28;20053;-75
2023/08/14 09:09:04;;;;;;;2.72;1.63;;;;;;;;;;4993135;28;20437;-75
2023/08/14 09:11:29;;;;;;;5.95;2.22;;;;;;;;;;4992718;28;20034;-75
2023/08/14 09:13:54;;;;;;;2.92;2.45;;;;;;;;;;4977050;28;20071;-75
2023/08/14 09:16:20;;;;;;;3.65;1.75;;;;;;;;;;4993200;28;20033;-75
2023/08/14 09:18:48;;;;;;;6.47;1.85;;;;;;;;;;4977034;28;20481;-75
2023/08/14 09:21:15;;;;;;;3.58;1.80;;;;;;;;;;4993214;28;20071;-75
2023/08/14 09:23:41;;;;;;;3.35;2.08;;;;;;;;;;4976331;28;20381;-75
2023/08/14 09:26:07;;;;;;;3.33;1.80;;;;;;;;;;4993147;28;20030;-75
2023/08/14 09:28:33;;;;;;;2.92;1.80;;;;;;;;;;4993306;28;20023;-75
2023/08/14 09:31:25;;;;;;;2.72;1.67;;;;;;;;;;4992826;28;20497;-75
2023/08/14 09:33:50;;;;;;;5.25;2.17;;;;;;;;;;4991300;28;20092;-75
2023/08/14 09:36:16;;;;;;;5.78;3.05;;;;;;;;;;4992280;28;20026;-75
2023/08/14 09:38:42;;;;;;;9.65;4.40;;;;;;;;;;4976791;28;20018;-75
2023/08/14 09:41:08;;;;;;;4.90;2.60;;;;;;;;;;4992854;28;20076;-75
2023/08/14 09:43:33;;;;;;;4.22;2.53;;;;;;;;;;4992859;28;20547;-75
2023/08/14 09:46:01;;;;;;;5.00;2.17;;;;;;;;;;4993829;28;20061;-75
2023/08/14 09:48:43;;;;;;;2.75;1.85;;;;;;;;;;4992456;28;20037;-75
2023/08/14 09:51:13;;;;;;;4.75;2.08;;;;;;;;;;4977738;28;20095;-75
2023/08/14 09:53:54;;;;;;;3.33;1.88;;;;;;;;;;4996821;28;20034;-76
2023/08/14 09:56:20;;;;;;;3.45;2.25;;;;;;;;;;4997876;28;20049;-75
2023/08/14 09:58:47;;;;;;;3.60;1.98;;;;;;;;;;4996215;28;20076;-75
2023/08/14 10:01:14;;;;;;;2.97;1.65;;;;;;;;;;4996660;28;20026;-75
2023/08/14 10:03:43;;;;;;;4.32;1.80;;;;;;;;;;4980363;28;20053;-75
2023/08/14 10:06:13;;;;;;;6.28;2.15;;;;;;;;;;4996380;28;20026;-75
2023/08/14 10:08:40;;;;;;;2.72;1.73;;;;;;;;;;4996166;28;20033;-75
2023/08/14 10:11:06;;;;;;;3.03;1.73;;;;;;;;;;4996627;28;20076;-76
2023/08/14 10:13:37;;;;;;;2.83;1.20;;;;;;;;;;4996433;28;20396;-75
2023/08/14 10:16:03;;;;;;;4.53;1.73;;;;;;;;;;4996366;28;20026;-75
2023/08/14 10:18:29;;;;;;;3.00;1.85;;;;;;;;;;4996376;28;20023;-75
2023/08/14 10:20:55;;;;;;;2.58;1.40;;;;;;;;;;4980528;28;20365;-75
2023/08/14 10:23:21;;;;;;;3.28;1.85;;;;;;;;;;4996292;28;20031;-75
2023/08/14 10:25:47;;;;;;;5.78;1.75;;;;;;;;;;4996367;28;20106;-75
2023/08/14 10:28:12;;;;;;;3.03;1.55;;;;;;;;;;4996056;28;20097;-75
2023/08/14 10:30:38;;;;;;;1.48;1.23;;;;;;;;;;4979756;28;20452;-75
2023/08/14 10:33:05;;;;;;;4.18;1.80;;;;;;;;;;4995964;28;20018;-75
2023/08/14 10:35:43;;;;;;;3.05;1.45;;;;;;;;;;4995501;28;20045;-76
2023/08/14 10:38:08;;;;;;;1.80;1.30;;;;;;;;;;4996035;28;20085;-75
2023/08/14 10:40:34;;;;;;;4.85;1.45;;;;;;;;;;4996906;28;20026;-74
2023/08/14 10:43:00;;;;;;;2.78;1.90;;;;;;;;;;4995566;28;20026;-75
2023/08/14 10:45:27;;;;;;;2.60;1.30;;;;;;;;;;4996546;28;20396;-74
2023/08/14 10:47:53;;;;;;;2.55;1.70;;;;;;;;;;5008798;23;20050;-73
2023/08/14 10:50:29;;;;;;;2.58;1.50;;;;;;;;;;4995633;28;20034;-71
2023/08/14 10:52:55;;;;;;;3.47;2.03;;;;;;;;;;4995213;28;20172;-71
2023/08/14 10:55:36;;;;;;;3.05;1.63;;;;;;;;;;4997295;28;20030;-72
2023/08/14 10:58:01;;;;;;;2.70;1.48;;;;;;;;;;4996719;28;20093;-72
2023/08/14 11:00:27;;;;;;;3.63;1.70;;;;;;;;;;4995341;28;20480;-71
2023/08/14 11:03:06;;;;;;;3.80;1.50;;;;;;;;;;4996689;28;20023;-72
2023/08/14 11:05:38;;;;;;;3.05;1.58;;;;;;;;;;4996678;28;20027;-71
2023/08/14 11:08:06;;;;;;;3.50;1.70;;;;;;;;;;4994787;28;20480;-71
2023/08/14 11:10:33;;;;;;;2.92;1.55;;;;;;;;;;4996323;28;20023;-72
2023/08/14 11:12:59;;;;;;;2.42;1.55;;;;;;;;;;4995466;28;20033;-71
2023/08/14 11:15:25;;;;;;;3.20;1.98;;;;;;;;;;4996196;28;20022;-75
2023/08/14 11:17:50;;;;;;;2.50;1.60;;;;;;;;;;4996100;28;20100;-74
2023/08/14 11:20:15;;;;;;;7.05;2.17;;;;;;;;;;4995652;28;20033;-74
2023/08/14 11:22:44;;;;;;;4.60;1.50;;;;;;;;;;4995412;28;20026;-74
2023/08/14 11:25:12;;;;;;;4.05;1.80;;;;;;;;;;4995945;28;20101;-74
2023/08/14 11:27:37;;;;;;;2.13;1.30;;;;;;;;;;4996107;28;20397;-72
2023/08/14 11:30:03;;;;;;;3.58;1.70;;;;;;;;;;4995973;28;20037;-74
2023/08/14 11:32:29;;;;;;;3.03;1.65;;;;;;;;;;4996126;28;20057;-72
2023/08/14 11:34:54;;;;;;;2.67;1.67;;;;;;;;;;4994038;28;20508;-74
2023/08/14 11:37:20;;;;;;;2.83;1.48;;;;;;;;;;4994567;28;20022;-74
2023/08/14 11:39:46;;;;;;;2.55;1.48;;;;;;;;;;4995719;28;20110;-74
2023/08/14 11:42:13;;;;;;;1.70;1.40;;;;;;;;;;4994585;28;20030;-74
2023/08/14 11:44:38;;;;;;;4.68;1.80;;;;;;;;;;5010826;28;20077;-74
2023/08/14 11:47:06;;;;;;;4.13;1.80;;;;;;;;;;4995112;28;20029;-74
2023/08/14 11:49:32;;;;;;;3.17;1.60;;;;;;;;;;4994235;28;20069;-74
2023/08/14 11:51:57;;;;;;;2.90;1.50;;;;;;;;;;4994237;28;20026;-73
2023/08/14 11:54:23;;;;;;;3.13;1.70;;;;;;;;;;4995826;28;20596;-74
2023/08/14 11:56:48;;;;;;;3.20;1.55;;;;;;;;;;4995348;28;20034;-74
2023/08/14 11:59:15;;;;;;;5.43;1.85;;;;;;;;;;4993736;28;20080;-74
2023/08/14 12:01:41;;;;;;;1.95;1.40;;;;;;;;;;4995553;28;20452;-73
2023/08/14 12:04:06;;;;;;;4.00;1.40;;;;;;;;;;4995566;28;20420;-74
2023/08/14 12:06:32;;;;;;;5.32;1.70;;;;;;;;;;4994753;28;20024;-74
2023/08/14 12:08:58;;;;;;;2.88;1.75;;;;;;;;;;4993940;28;20022;-74
2023/08/14 12:11:24;;;;;;;4.18;1.52;;;;;;;;;;4995190;28;20072;-74
2023/08/14 12:13:52;;;;;;;2.63;1.48;;;;;;;;;;4994481;28;20026;-74
2023/08/14 12:16:21;;;;;;;2.80;1.45;;;;;;;;;;4993496;28;20089;-75
2023/08/14 12:18:47;;;;;;;2.15;1.50;;;;;;;;;;4993741;28;20462;-74
2023/08/14 12:21:12;;;;;;;4.55;1.80;;;;;;;;;;4994977;28;20469;-74
2023/08/14 12:23:49;;;;;;;5.05;1.60;;;;;;;;;;4993326;28;20041;-74
2023/08/14 12:26:15;;;;;;;2.35;1.70;;;;;;;;;;4993789;28;20040;-74
2023/08/14 12:28:41;;;;;;;4.75;1.65;;;;;;;;;;4993633;28;20022;-73
2023/08/14 12:31:06;;;;;;;2.50;1.55;;;;;;;;;;4994630;28;20038;-73
2023/08/14 12:33:32;;;;;;;2.60;1.73;;;;;;;;;;5009740;28;20030;-74
2023/08/14 12:35:57;;;;;;;2.22;1.73;;;;;;;;;;4994649;28;20105;-74
2023/08/14 12:38:22;;;;;;;2.63;1.52;;;;;;;;;;4993310;28;20165;-74
2023/08/14 12:40:48;;;;;;;2.53;1.67;;;;;;;;;;4993481;28;20014;-74
2023/08/14 12:43:13;;;;;;;3.75;1.70;;;;;;;;;;4993417;28;20476;-74
2023/08/14 12:45:38;;;;;;;4.00;1.70;;;;;;;;;;4994371;28;20508;-74
2023/08/14 12:48:04;;;;;;;2.35;1.40;;;;;;;;;;4991131;28;20031;-74
2023/08/14 12:50:29;;;;;;;5.88;1.67;;;;;;;;;;4973628;28;20058;-74
2023/08/14 12:52:54;;;;;;;2.70;1.67;;;;;;;;;;4983161;28;20031;-74
2023/08/14 12:55:20;;;;;;;3.33;1.55;;;;;;;;;;4994113;28;20540;-74
2023/08/14 12:57:45;;;;;;;2.42;1.50;;;;;;;;;;4992481;28;20022;-75
2023/08/14 13:00:11;;;;;;;4.15;1.67;;;;;;;;;;4992844;28;20034;-74
2023/08/14 13:02:36;;;;;;;5.30;1.60;;;;;;;;;;4993800;28;20057;-74
2023/08/14 13:05:01;;;;;;;5.00;1.45;;;;;;;;;;4992916;28;20473;-74
2023/08/14 13:07:30;;;;;;;2.13;1.52;;;;;;;;;;4993100;28;20030;-74
2023/08/14 13:09:56;;;;;;;3.15;1.52;;;;;;;;;;4993483;28;20535;-74
2023/08/14 13:12:21;;;;;;;2.85;1.70;;;;;;;;;;4994017;28;20030;-74
2023/08/14 13:14:46;;;;;;;4.53;1.88;;;;;;;;;;5009102;28;20088;-74
2023/08/14 13:17:11;;;;;;;2.67;1.60;;;;;;;;;;4992351;28;20025;-74
2023/08/14 13:19:37;;;;;;;4.15;1.42;;;;;;;;;;4993912;28;20029;-74
2023/08/14 13:22:02;;;;;;;2.63;1.80;;;;;;;;;;4994723;28;20022;-74
2023/08/14 13:24:27;;;;;;;3.70;1.67;;;;;;;;;;4993810;28;20518;-74
2023/08/14 13:26:53;;;;;;;2.75;1.67;;;;;;;;;;4993973;28;20206;-74
2023/08/14 13:29:18;;;;;;;2.45;1.70;;;;;;;;;;4993631;28;20081;-74
2023/08/14 13:31:44;;;;;;;2.28;1.60;;;;;;;;;;5008473;28;20037;-75
2023/08/14 13:34:09;;;;;;;3.22;1.40;;;;;;;;;;4992359;28;20096;-74
2023/08/14 13:36:35;;;;;;;4.28;1.98;;;;;;;;;;4993653;28;20101;-74
2023/08/14 13:39:00;;;;;;;4.55;2.22;;;;;;;;;;4992403;28;20080;-74
2023/08/14 13:41:25;;;;;;;2.30;1.65;;;;;;;;;;4991991;28;20022;-73
2023/08/14 13:43:50;;;;;;;3.70;1.70;;;;;;;;;;4993661;28;20022;-74
2023/08/14 13:46:16;;;;;;;3.05;1.65;;;;;;;;;;4993695;28;20029;-74
2023/08/14 13:48:41;;;;;;;3.33;2.03;;;;;;;;;;5007989;28;20476;-74
2023/08/14 13:51:06;;;;;;;6.32;1.95;;;;;;;;;;4992599;28;20030;-74
2023/08/14 13:53:32;;;;;;;3.83;1.92;;;;;;;;;;4993770;28;20026;-74
2023/08/14 13:55:57;;;;;;;3.60;1.95;;;;;;;;;;4993545;28;20477;-74
2023/08/14 13:58:23;;;;;;;5.20;2.45;;;;;;;;;;4993018;28;20022;-74
2023/08/14 14:00:48;;;;;;;5.10;2.28;;;;;;;;;;5008584;28;20022;-74
2023/08/14 14:03:14;;;;;;;3.03;2.15;;;;;;;;;;5008484;28;20440;-74
2023/08/14 14:05:43;;;;;;;5.43;1.88;;;;;;;;;;4992353;28;20034;-74
2023/08/14 14:08:08;;;;;;;3.80;1.80;;;;;;;;;;4993374;28;20400;-73
2023/08/14 14:10:33;;;;;;;3.45;1.77;;;;;;;;;;4993917;28;20037;-76
2023/08/14 14:12:58;;;;;;;3.90;1.70;;;;;;;;;;4993853;28;20029;-74
2023/08/14 14:15:24;;;;;;;3.88;1.70;;;;;;;;;;4993251;28;20095;-74
2023/08/14 14:17:49;;;;;;;4.78;1.75;;;;;;;;;;4993291;28;20069;-73
2023/08/14 14:20:15;;;;;;;5.38;2.00;;;;;;;;;;4993342;28;20037;-74
2023/08/14 14:22:40;;;;;;;4.30;2.05;;;;;;;;;;4975581;28;20023;-74
2023/08/14 14:25:06;;;;;;;3.47;1.50;;;;;;;;;;4993354;28;20412;-74
2023/08/14 14:27:31;;;;;;;4.60;1.73;;;;;;;;;;4993232;28;20105;-73
2023/08/14 14:29:56;;;;;;;5.07;1.90;;;;;;;;;;4992705;28;20149;-73
2023/08/14 14:32:22;;;;;;;4.65;1.45;;;;;;;;;;4993211;28;20396;-73
2023/08/14 14:34:47;;;;;;;4.80;2.42;;;;;;;;;;4988762;28;20033;-74